sensor_id;sensor_type;location;lat;lon;timestamp;P1;durP1;ratioP1;P2;durP2;ratioP2
19727;SDS011;10015;52.530;13.390;2023-07-13T00:00:37;3.20;;;1.70;;
19727;SDS011;10015;52.530;13.390;2023-07-13T00:03:03;3.65;;;1.83;;
19727;SDS011;10015;52.530;13.390;2023-07-13T00:05:30;4.22;;;2.10;;
19727;SDS011;10015;52.530;13.390;2023-07-13T00:07:57;4.95;;;2.00;;
19727;SDS011;10015;52.530;13.390;2023-07-13T00:10:23;3.13;;;2.17;;
19727;SDS011;10015;52.530;13.390;2023-07-13T00:12:49;4.20;;;2.20;;
19727;SDS011;10015;52.530;13.390;2023-07-13T00:15:20;3.70;;;1.90;;
19727;SDS011;10015;52.530;13.390;2023-07-13T00:17:49;4.10;;;2.00;;
19727;SDS011;10015;52.530;13.390;2023-07-13T00:20:15;4.68;;;1.90;;
19727;SDS011;10015;52.530;13.390;2023-07-13T00:22:42;2.75;;;1.92;;
19727;SDS011;10015;52.530;13.390;2023-07-13T00:25:10;2.60;;;1.90;;
19727;SDS011;10015;52.530;13.390;2023-07-13T00:27:37;3.05;;;1.63;;
19727;SDS011;10015;52.530;13.390;2023-07-13T00:30:03;5.15;;;2.55;;
19727;SDS011;10015;52.530;13.390;2023-07-13T00:32:30;3.20;;;1.80;;
19727;SDS011;10015;52.530;13.390;2023-07-13T00:34:58;4.13;;;1.75;;
19727;SDS011;10015;52.530;13.390;2023-07-13T00:37:25;2.67;;;1.98;;
19727;SDS011;10015;52.530;13.390;2023-07-13T00:39:51;2.85;;;1.90;;
19727;SDS011;10015;52.530;13.390;2023-07-13T00:42:17;3.13;;;1.65;;
19727;SDS011;10015;52.530;13.390;2023-07-13T00:45:01;2.72;;;1.92;;
19727;SDS011;10015;52.530;13.390;2023-07-13T00:47:27;4.28;;;2.15;;
19727;SDS011;10015;52.530;13.390;2023-07-13T00:49:53;3.35;;;1.83;;
19727;SDS011;10015;52.530;13.390;2023-07-13T00:52:19;3.63;;;2.00;;
19727;SDS011;10015;52.530;13.390;2023-07-13T00:54:45;4.43;;;2.00;;
19727;SDS011;10015;52.530;13.390;2023-07-13T00:57:13;2.65;;;1.98;;
19727;SDS011;10015;52.530;13.390;2023-07-13T00:59:42;4.07;;;2.00;;
19727;SDS011;10015;52.530;13.390;2023-07-13T01:02:11;6.40;;;2.08;;
19727;SDS011;10015;52.530;13.390;2023-07-13T01:04:37;3.85;;;1.83;;
19727;SDS011;10015;52.530;13.390;2023-07-13T01:07:04;5.47;;;2.10;;
19727;SDS011;10015;52.530;13.390;2023-07-13T01:09:32;3.53;;;2.00;;
19727;SDS011;10015;52.530;13.390;2023-07-13T01:11:58;3.08;;;1.98;;
19727;SDS011;10015;52.530;13.390;2023-07-13T01:14:24;4.15;;;2.00;;
19727;SDS011;10015;52.530;13.390;2023-07-13T01:16:50;2.75;;;1.88;;
19727;SDS011;10015;52.530;13.390;2023-07-13T01:21:42;4.18;;;1.80;;
19727;SDS011;10015;52.530;13.390;2023-07-13T01:24:09;3.25;;;1.90;;
19727;SDS011;10015;52.530;13.390;2023-07-13T01:26:35;3.67;;;1.95;;
19727;SDS011;10015;52.530;13.390;2023-07-13T01:29:01;2.58;;;2.08;;
19727;SDS011;10015;52.530;13.390;2023-07-13T01:31:26;2.83;;;1.85;;
19727;SDS011;10015;52.530;13.390;2023-07-13T01:33:52;4.90;;;1.90;;
19727;SDS011;10015;52.530;13.390;2023-07-13T01:36:20;4.00;;;1.92;;
19727;SDS011;10015;52.530;13.390;2023-07-13T01:38:46;2.05;;;1.60;;
19727;SDS011;10015;52.530;13.390;2023-07-13T01:41:12;3.63;;;2.08;;
19727;SDS011;10015;52.530;13.390;2023-07-13T01:43:38;3.47;;;1.92;;
19727;SDS011;10015;52.530;13.390;2023-07-13T01:46:06;4.10;;;2.17;;
19727;SDS011;10015;52.530;13.390;2023-07-13T01:48:32;2.42;;;2.00;;
19727;SDS011;10015;52.530;13.390;2023-07-13T01:50:59;3.15;;;1.95;;
19727;SDS011;10015;52.530;13.390;2023-07-13T01:53:25;3.78;;;2.20;;
19727;SDS011;10015;52.530;13.390;2023-07-13T01:55:51;2.05;;;1.77;;
19727;SDS011;10015;52.530;13.390;2023-07-13T01:58:17;4.72;;;2.15;;
19727;SDS011;10015;52.530;13.390;2023-07-13T02:00:43;3.78;;;1.75;;
19727;SDS011;10015;52.530;13.390;2023-07-13T02:03:09;2.05;;;1.77;;
19727;SDS011;10015;52.530;13.390;2023-07-13T02:05:35;2.85;;;1.80;;
19727;SDS011;10015;52.530;13.390;2023-07-13T02:08:01;3.25;;;2.00;;
19727;SDS011;10015;52.530;13.390;2023-07-13T02:10:30;2.40;;;1.80;;
19727;SDS011;10015;52.530;13.390;2023-07-13T02:12:56;2.83;;;1.90;;
19727;SDS011;10015;52.530;13.390;2023-07-13T02:15:22;2.70;;;1.83;;
19727;SDS011;10015;52.530;13.390;2023-07-13T02:17:48;3.60;;;2.00;;
19727;SDS011;10015;52.530;13.390;2023-07-13T02:20:14;3.80;;;2.20;;
19727;SDS011;10015;52.530;13.390;2023-07-13T02:22:40;3.88;;;2.00;;
19727;SDS011;10015;52.530;13.390;2023-07-13T02:25:05;3.50;;;1.90;;
19727;SDS011;10015;52.530;13.390;2023-07-13T02:27:32;3.13;;;1.77;;
19727;SDS011;10015;52.530;13.390;2023-07-13T02:29:58;3.40;;;1.75;;
19727;SDS011;10015;52.530;13.390;2023-07-13T02:32:24;2.97;;;1.77;;
19727;SDS011;10015;52.530;13.390;2023-07-13T02:34:51;3.08;;;2.13;;
19727;SDS011;10015;52.530;13.390;2023-07-13T02:37:18;2.72;;;1.77;;
19727;SDS011;10015;52.530;13.390;2023-07-13T02:39:44;3.08;;;1.75;;
19727;SDS011;10015;52.530;13.390;2023-07-13T02:42:10;4.50;;;2.00;;
19727;SDS011;10015;52.530;13.390;2023-07-13T02:44:36;4.50;;;2.40;;
19727;SDS011;10015;52.530;13.390;2023-07-13T02:47:03;2.45;;;1.85;;
19727;SDS011;10015;52.530;13.390;2023-07-13T02:49:29;2.95;;;1.85;;
19727;SDS011;10015;52.530;13.390;2023-07-13T02:51:55;3.90;;;1.95;;
19727;SDS011;10015;52.530;13.390;2023-07-13T02:54:21;4.40;;;2.10;;
19727;SDS011;10015;52.530;13.390;2023-07-13T02:56:47;4.20;;;2.67;;
19727;SDS011;10015;52.530;13.390;2023-07-13T02:59:13;3.20;;;2.00;;
19727;SDS011;10015;52.530;13.390;2023-07-13T03:01:39;3.22;;;2.00;;
19727;SDS011;10015;52.530;13.390;2023-07-13T03:04:06;5.20;;;2.10;;
19727;SDS011;10015;52.530;13.390;2023-07-13T03:06:34;4.30;;;2.10;;
19727;SDS011;10015;52.530;13.390;2023-07-13T03:09:00;3.38;;;2.05;;
19727;SDS011;10015;52.530;13.390;2023-07-13T03:11:28;5.50;;;2.35;;
19727;SDS011;10015;52.530;13.390;2023-07-13T03:14:04;3.45;;;1.88;;
19727;SDS011;10015;52.530;13.390;2023-07-13T03:16:34;2.45;;;1.90;;
19727;SDS011;10015;52.530;13.390;2023-07-13T03:19:01;3.30;;;2.00;;
19727;SDS011;10015;52.530;13.390;2023-07-13T03:21:28;4.30;;;2.30;;
19727;SDS011;10015;52.530;13.390;2023-07-13T03:23:54;4.07;;;2.03;;
19727;SDS011;10015;52.530;13.390;2023-07-13T03:26:20;3.63;;;2.20;;
19727;SDS011;10015;52.530;13.390;2023-07-13T03:28:47;5.78;;;2.20;;
19727;SDS011;10015;52.530;13.390;2023-07-13T03:31:18;3.70;;;2.10;;
19727;SDS011;10015;52.530;13.390;2023-07-13T03:33:46;4.72;;;2.15;;
19727;SDS011;10015;52.530;13.390;2023-07-13T03:36:15;4.15;;;2.30;;
19727;SDS011;10015;52.530;13.390;2023-07-13T03:38:50;3.78;;;2.08;;
19727;SDS011;10015;52.530;13.390;2023-07-13T03:41:22;4.43;;;2.20;;
19727;SDS011;10015;52.530;13.390;2023-07-13T03:43:50;3.30;;;1.92;;
19727;SDS011;10015;52.530;13.390;2023-07-13T03:46:19;5.32;;;2.10;;
19727;SDS011;10015;52.530;13.390;2023-07-13T03:48:45;4.15;;;2.10;;
19727;SDS011;10015;52.530;13.390;2023-07-13T03:51:13;3.03;;;2.15;;
19727;SDS011;10015;52.530;13.390;2023-07-13T03:53:41;3.90;;;2.00;;
19727;SDS011;10015;52.530;13.390;2023-07-13T03:56:11;3.25;;;2.10;;
19727;SDS011;10015;52.530;13.390;2023-07-13T03:58:41;3.97;;;2.00;;
19727;SDS011;10015;52.530;13.390;2023-07-13T04:01:16;3.15;;;2.03;;
19727;SDS011;10015;52.530;13.390;2023-07-13T04:03:43;5.43;;;2.00;;
19727;SDS011;10015;52.530;13.390;2023-07-13T04:06:21;4.07;;;2.35;;
19727;SDS011;10015;52.530;13.390;2023-07-13T04:08:50;2.38;;;1.90;;
19727;SDS011;10015;52.530;13.390;2023-07-13T04:11:19;2.50;;;1.90;;
19727;SDS011;10015;52.530;13.390;2023-07-13T04:13:46;5.90;;;2.10;;
19727;SDS011;10015;52.530;13.390;2023-07-13T04:16:13;5.60;;;2.22;;
19727;SDS011;10015;52.530;13.390;2023-07-13T04:18:41;5.07;;;2.17;;
19727;SDS011;10015;52.530;13.390;2023-07-13T04:21:07;5.13;;;2.05;;
19727;SDS011;10015;52.530;13.390;2023-07-13T04:23:34;5.13;;;2.30;;
19727;SDS011;10015;52.530;13.390;2023-07-13T04:26:01;4.63;;;2.28;;
19727;SDS011;10015;52.530;13.390;2023-07-13T04:28:27;3.55;;;1.90;;
19727;SDS011;10015;52.530;13.390;2023-07-13T04:30:53;4.32;;;1.95;;
19727;SDS011;10015;52.530;13.390;2023-07-13T04:33:19;4.00;;;2.08;;
19727;SDS011;10015;52.530;13.390;2023-07-13T04:35:49;3.67;;;2.00;;
19727;SDS011;10015;52.530;13.390;2023-07-13T04:38:20;5.07;;;2.17;;
19727;SDS011;10015;52.530;13.390;2023-07-13T04:40:46;3.97;;;2.50;;
19727;SDS011;10015;52.530;13.390;2023-07-13T04:43:12;6.30;;;2.67;;
19727;SDS011;10015;52.530;13.390;2023-07-13T04:45:38;6.15;;;2.30;;
19727;SDS011;10015;52.530;13.390;2023-07-13T04:48:04;7.50;;;2.80;;
19727;SDS011;10015;52.530;13.390;2023-07-13T04:50:30;4.32;;;2.70;;
19727;SDS011;10015;52.530;13.390;2023-07-13T04:52:56;7.97;;;3.00;;
19727;SDS011;10015;52.530;13.390;2023-07-13T04:55:22;4.88;;;2.58;;
19727;SDS011;10015;52.530;13.390;2023-07-13T04:57:48;6.90;;;2.90;;
19727;SDS011;10015;52.530;13.390;2023-07-13T05:00:14;6.22;;;3.17;;
19727;SDS011;10015;52.530;13.390;2023-07-13T05:02:43;6.78;;;2.92;;
19727;SDS011;10015;52.530;13.390;2023-07-13T05:05:10;4.13;;;2.60;;
19727;SDS011;10015;52.530;13.390;2023-07-13T05:07:36;6.97;;;2.78;;
19727;SDS011;10015;52.530;13.390;2023-07-13T05:10:03;7.15;;;2.88;;
19727;SDS011;10015;52.530;13.390;2023-07-13T05:12:29;6.20;;;3.33;;
19727;SDS011;10015;52.530;13.390;2023-07-13T05:14:55;6.60;;;2.95;;
19727;SDS011;10015;52.530;13.390;2023-07-13T05:17:21;5.75;;;2.75;;
19727;SDS011;10015;52.530;13.390;2023-07-13T05:19:47;5.28;;;2.75;;
19727;SDS011;10015;52.530;13.390;2023-07-13T05:22:13;7.03;;;3.13;;
19727;SDS011;10015;52.530;13.390;2023-07-13T05:24:39;6.22;;;2.90;;
19727;SDS011;10015;52.530;13.390;2023-07-13T05:27:05;5.35;;;2.72;;
19727;SDS011;10015;52.530;13.390;2023-07-13T05:29:31;8.10;;;3.08;;
19727;SDS011;10015;52.530;13.390;2023-07-13T05:31:57;5.65;;;2.60;;
19727;SDS011;10015;52.530;13.390;2023-07-13T05:34:23;5.72;;;2.40;;
19727;SDS011;10015;52.530;13.390;2023-07-13T05:36:49;5.93;;;2.50;;
19727;SDS011;10015;52.530;13.390;2023-07-13T05:39:15;4.38;;;2.47;;
19727;SDS011;10015;52.530;13.390;2023-07-13T05:41:42;4.35;;;1.98;;
19727;SDS011;10015;52.530;13.390;2023-07-13T05:44:08;3.88;;;2.22;;
19727;SDS011;10015;52.530;13.390;2023-07-13T05:46:35;5.57;;;2.25;;
19727;SDS011;10015;52.530;13.390;2023-07-13T05:49:01;3.45;;;2.17;;
19727;SDS011;10015;52.530;13.390;2023-07-13T05:51:28;5.28;;;1.98;;
19727;SDS011;10015;52.530;13.390;2023-07-13T05:53:54;4.82;;;2.13;;
19727;SDS011;10015;52.530;13.390;2023-07-13T05:56:21;2.60;;;1.70;;
19727;SDS011;10015;52.530;13.390;2023-07-13T05:58:47;7.07;;;2.20;;
19727;SDS011;10015;52.530;13.390;2023-07-13T06:01:14;3.15;;;2.08;;
19727;SDS011;10015;52.530;13.390;2023-07-13T06:03:41;3.85;;;1.90;;
19727;SDS011;10015;52.530;13.390;2023-07-13T06:06:07;3.72;;;1.92;;
19727;SDS011;10015;52.530;13.390;2023-07-13T06:08:34;3.42;;;2.03;;
19727;SDS011;10015;52.530;13.390;2023-07-13T06:13:31;3.58;;;2.10;;
19727;SDS011;10015;52.530;13.390;2023-07-13T06:15:58;4.80;;;1.88;;
19727;SDS011;10015;52.530;13.390;2023-07-13T06:18:25;2.63;;;1.80;;
19727;SDS011;10015;52.530;13.390;2023-07-13T06:20:53;4.50;;;1.90;;
19727;SDS011;10015;52.530;13.390;2023-07-13T06:23:19;5.50;;;1.92;;
19727;SDS011;10015;52.530;13.390;2023-07-13T06:25:45;5.35;;;1.83;;
19727;SDS011;10015;52.530;13.390;2023-07-13T06:28:11;3.17;;;2.00;;
19727;SDS011;10015;52.530;13.390;2023-07-13T06:30:40;3.97;;;2.05;;
19727;SDS011;10015;52.530;13.390;2023-07-13T06:33:06;2.80;;;1.65;;
19727;SDS011;10015;52.530;13.390;2023-07-13T06:35:32;3.00;;;1.85;;
19727;SDS011;10015;52.530;13.390;2023-07-13T06:37:58;3.92;;;1.80;;
19727;SDS011;10015;52.530;13.390;2023-07-13T06:40:25;3.63;;;1.80;;
19727;SDS011;10015;52.530;13.390;2023-07-13T06:42:51;4.93;;;1.67;;
19727;SDS011;10015;52.530;13.390;2023-07-13T06:45:17;7.53;;;2.13;;
19727;SDS011;10015;52.530;13.390;2023-07-13T06:47:43;4.22;;;2.00;;
19727;SDS011;10015;52.530;13.390;2023-07-13T06:50:09;3.40;;;1.80;;
19727;SDS011;10015;52.530;13.390;2023-07-13T06:52:35;4.05;;;1.58;;
19727;SDS011;10015;52.530;13.390;2023-07-13T06:55:01;3.83;;;1.52;;
19727;SDS011;10015;52.530;13.390;2023-07-13T06:57:27;3.42;;;1.52;;
19727;SDS011;10015;52.530;13.390;2023-07-13T06:59:53;4.00;;;1.60;;
19727;SDS011;10015;52.530;13.390;2023-07-13T07:02:19;2.80;;;1.70;;
19727;SDS011;10015;52.530;13.390;2023-07-13T07:04:45;4.18;;;1.45;;
19727;SDS011;10015;52.530;13.390;2023-07-13T07:07:12;2.97;;;1.50;;
19727;SDS011;10015;52.530;13.390;2023-07-13T07:09:38;6.38;;;1.55;;
19727;SDS011;10015;52.530;13.390;2023-07-13T07:12:04;2.60;;;1.60;;
19727;SDS011;10015;52.530;13.390;2023-07-13T07:14:31;5.07;;;1.30;;
19727;SDS011;10015;52.530;13.390;2023-07-13T07:16:58;3.35;;;1.30;;
19727;SDS011;10015;52.530;13.390;2023-07-13T07:19:24;4.82;;;1.83;;
19727;SDS011;10015;52.530;13.390;2023-07-13T07:21:50;4.15;;;1.30;;
19727;SDS011;10015;52.530;13.390;2023-07-13T07:24:16;2.35;;;1.50;;
19727;SDS011;10015;52.530;13.390;2023-07-13T07:26:43;2.92;;;1.30;;
19727;SDS011;10015;52.530;13.390;2023-07-13T07:29:09;4.05;;;1.42;;
19727;SDS011;10015;52.530;13.390;2023-07-13T07:31:35;3.20;;;1.40;;
19727;SDS011;10015;52.530;13.390;2023-07-13T07:34:02;4.57;;;1.52;;
19727;SDS011;10015;52.530;13.390;2023-07-13T07:36:28;5.90;;;1.95;;
19727;SDS011;10015;52.530;13.390;2023-07-13T07:38:54;4.30;;;1.80;;
19727;SDS011;10015;52.530;13.390;2023-07-13T07:41:21;5.53;;;2.08;;
19727;SDS011;10015;52.530;13.390;2023-07-13T07:43:47;2.42;;;1.50;;
19727;SDS011;10015;52.530;13.390;2023-07-13T07:46:13;5.18;;;1.85;;
19727;SDS011;10015;52.530;13.390;2023-07-13T07:48:40;4.45;;;1.80;;
19727;SDS011;10015;52.530;13.390;2023-07-13T07:51:06;6.88;;;1.88;;
19727;SDS011;10015;52.530;13.390;2023-07-13T07:53:32;5.68;;;1.80;;
19727;SDS011;10015;52.530;13.390;2023-07-13T07:55:59;1.75;;;1.55;;
19727;SDS011;10015;52.530;13.390;2023-07-13T07:58:25;5.55;;;1.67;;
19727;SDS011;10015;52.530;13.390;2023-07-13T08:00:51;2.67;;;1.30;;
19727;SDS011;10015;52.530;13.390;2023-07-13T08:03:17;2.95;;;1.20;;
19727;SDS011;10015;52.530;13.390;2023-07-13T08:05:44;2.80;;;1.50;;
19727;SDS011;10015;52.530;13.390;2023-07-13T08:08:10;3.78;;;1.30;;
19727;SDS011;10015;52.530;13.390;2023-07-13T08:10:36;3.47;;;1.45;;
19727;SDS011;10015;52.530;13.390;2023-07-13T08:13:02;3.05;;;1.27;;
19727;SDS011;10015;52.530;13.390;2023-07-13T08:15:28;5.50;;;1.63;;
19727;SDS011;10015;52.530;13.390;2023-07-13T08:17:54;3.22;;;1.60;;
19727;SDS011;10015;52.530;13.390;2023-07-13T08:20:20;2.10;;;1.45;;
19727;SDS011;10015;52.530;13.390;2023-07-13T08:22:46;2.45;;;1.27;;
19727;SDS011;10015;52.530;13.390;2023-07-13T08:25:12;4.65;;;1.75;;
19727;SDS011;10015;52.530;13.390;2023-07-13T08:27:38;1.80;;;1.40;;
19727;SDS011;10015;52.530;13.390;2023-07-13T08:30:04;3.78;;;1.63;;
19727;SDS011;10015;52.530;13.390;2023-07-13T08:32:31;3.00;;;1.40;;
19727;SDS011;10015;52.530;13.390;2023-07-13T08:34:57;4.32;;;1.60;;
19727;SDS011;10015;52.530;13.390;2023-07-13T08:37:23;2.42;;;1.40;;
19727;SDS011;10015;52.530;13.390;2023-07-13T08:39:48;1.85;;;1.40;;
19727;SDS011;10015;52.530;13.390;2023-07-13T08:47:15;4.57;;;1.55;;
19727;SDS011;10015;52.530;13.390;2023-07-13T08:49:42;5.93;;;1.65;;
19727;SDS011;10015;52.530;13.390;2023-07-13T08:54:40;4.57;;;1.35;;
19727;SDS011;10015;52.530;13.390;2023-07-13T08:57:14;4.03;;;1.40;;
19727;SDS011;10015;52.530;13.390;2023-07-13T08:59:45;2.60;;;1.10;;
19727;SDS011;10015;52.530;13.390;2023-07-13T09:05:30;2.58;;;1.23;;
19727;SDS011;10015;52.530;13.390;2023-07-13T09:11:02;2.45;;;1.20;;
19727;SDS011;10015;52.530;13.390;2023-07-13T09:16:07;3.00;;;1.15;;
19727;SDS011;10015;52.530;13.390;2023-07-13T09:18:40;3.72;;;1.25;;
19727;SDS011;10015;52.530;13.390;2023-07-13T09:21:12;6.20;;;1.20;;
19727;SDS011;10015;52.530;13.390;2023-07-13T09:23:42;2.00;;;1.17;;
19727;SDS011;10015;52.530;13.390;2023-07-13T09:28:51;2.67;;;1.50;;
19727;SDS011;10015;52.530;13.390;2023-07-13T09:31:23;4.15;;;2.22;;
19727;SDS011;10015;52.530;13.390;2023-07-13T09:34:02;3.33;;;1.70;;
19727;SDS011;10015;52.530;13.390;2023-07-13T09:36:30;3.42;;;1.90;;
19727;SDS011;10015;52.530;13.390;2023-07-13T09:41:47;3.33;;;2.10;;
19727;SDS011;10015;52.530;13.390;2023-07-13T09:44:16;2.63;;;1.65;;
19727;SDS011;10015;52.530;13.390;2023-07-13T09:46:54;3.45;;;1.92;;
19727;SDS011;10015;52.530;13.390;2023-07-13T09:49:25;5.88;;;1.80;;
19727;SDS011;10015;52.530;13.390;2023-07-13T09:51:57;3.97;;;2.20;;
19727;SDS011;10015;52.530;13.390;2023-07-13T09:54:33;3.90;;;1.90;;
19727;SDS011;10015;52.530;13.390;2023-07-13T09:57:01;3.58;;;2.28;;
19727;SDS011;10015;52.530;13.390;2023-07-13T09:59:29;5.85;;;4.40;;
19727;SDS011;10015;52.530;13.390;2023-07-13T10:01:58;6.68;;;3.55;;
19727;SDS011;10015;52.530;13.390;2023-07-13T10:04:30;4.10;;;2.20;;
19727;SDS011;10015;52.530;13.390;2023-07-13T10:07:04;7.47;;;2.40;;
19727;SDS011;10015;52.530;13.390;2023-07-13T10:09:32;9.95;;;2.30;;
19727;SDS011;10015;52.530;13.390;2023-07-13T10:11:58;4.80;;;2.40;;
19727;SDS011;10015;52.530;13.390;2023-07-13T10:14:24;4.88;;;2.50;;
19727;SDS011;10015;52.530;13.390;2023-07-13T10:17:00;3.50;;;2.47;;
19727;SDS011;10015;52.530;13.390;2023-07-13T10:19:32;2.78;;;2.35;;
19727;SDS011;10015;52.530;13.390;2023-07-13T10:22:00;6.45;;;2.38;;
19727;SDS011;10015;52.530;13.390;2023-07-13T10:24:35;7.75;;;2.45;;
19727;SDS011;10015;52.530;13.390;2023-07-13T10:27:15;6.65;;;2.63;;
19727;SDS011;10015;52.530;13.390;2023-07-13T10:29:55;4.00;;;2.40;;
19727;SDS011;10015;52.530;13.390;2023-07-13T10:32:34;4.28;;;1.90;;
19727;SDS011;10015;52.530;13.390;2023-07-13T10:35:01;6.35;;;3.58;;
19727;SDS011;10015;52.530;13.390;2023-07-13T10:37:35;4.90;;;2.40;;
19727;SDS011;10015;52.530;13.390;2023-07-13T10:40:12;3.90;;;2.40;;
19727;SDS011;10015;52.530;13.390;2023-07-13T10:42:44;3.90;;;1.95;;
19727;SDS011;10015;52.530;13.390;2023-07-13T10:45:17;4.47;;;2.10;;
19727;SDS011;10015;52.530;13.390;2023-07-13T10:47:44;3.22;;;2.20;;
19727;SDS011;10015;52.530;13.390;2023-07-13T10:50:29;3.92;;;1.92;;
19727;SDS011;10015;52.530;13.390;2023-07-13T10:53:03;2.75;;;2.00;;
19727;SDS011;10015;52.530;13.390;2023-07-13T10:58:23;6.60;;;3.10;;
19727;SDS011;10015;52.530;13.390;2023-07-13T11:03:32;5.72;;;2.10;;
19727;SDS011;10015;52.530;13.390;2023-07-13T11:06:04;4.40;;;2.15;;
19727;SDS011;10015;52.530;13.390;2023-07-13T11:08:35;3.55;;;2.13;;
19727;SDS011;10015;52.530;13.390;2023-07-13T11:11:31;5.47;;;2.28;;
19727;SDS011;10015;52.530;13.390;2023-07-13T11:18:48;4.15;;;2.28;;
19727;SDS011;10015;52.530;13.390;2023-07-13T11:21:21;7.30;;;2.40;;
19727;SDS011;10015;52.530;13.390;2023-07-13T11:24:01;8.77;;;2.20;;
19727;SDS011;10015;52.530;13.390;2023-07-13T11:29:32;8.20;;;2.67;;
19727;SDS011;10015;52.530;13.390;2023-07-13T11:32:10;8.40;;;2.70;;
19727;SDS011;10015;52.530;13.390;2023-07-13T11:34:53;8.00;;;5.70;;
19727;SDS011;10015;52.530;13.390;2023-07-13T11:37:19;7.68;;;4.43;;
19727;SDS011;10015;52.530;13.390;2023-07-13T11:39:47;7.45;;;4.10;;
19727;SDS011;10015;52.530;13.390;2023-07-13T11:42:16;4.68;;;3.60;;
19727;SDS011;10015;52.530;13.390;2023-07-13T11:44:45;3.40;;;2.15;;
19727;SDS011;10015;52.530;13.390;2023-07-13T11:47:21;4.38;;;2.00;;
19727;SDS011;10015;52.530;13.390;2023-07-13T11:49:48;8.60;;;2.30;;
19727;SDS011;10015;52.530;13.390;2023-07-13T11:52:17;3.50;;;1.80;;
19727;SDS011;10015;52.530;13.390;2023-07-13T11:55:03;4.65;;;1.88;;
19727;SDS011;10015;52.530;13.390;2023-07-13T11:57:40;2.80;;;1.90;;
19727;SDS011;10015;52.530;13.390;2023-07-13T12:00:12;5.00;;;3.17;;
19727;SDS011;10015;52.530;13.390;2023-07-13T12:02:42;3.85;;;2.05;;
19727;SDS011;10015;52.530;13.390;2023-07-13T12:05:11;4.18;;;1.65;;
19727;SDS011;10015;52.530;13.390;2023-07-13T12:07:39;3.28;;;1.95;;
19727;SDS011;10015;52.530;13.390;2023-07-13T12:12:40;3.50;;;2.00;;
19727;SDS011;10015;52.530;13.390;2023-07-13T12:15:16;6.80;;;3.00;;
19727;SDS011;10015;52.530;13.390;2023-07-13T12:17:42;4.55;;;2.50;;
19727;SDS011;10015;52.530;13.390;2023-07-13T12:23:04;4.95;;;2.13;;
19727;SDS011;10015;52.530;13.390;2023-07-13T12:25:31;4.50;;;1.85;;
19727;SDS011;10015;52.530;13.390;2023-07-13T12:27:57;4.45;;;1.80;;
19727;SDS011;10015;52.530;13.390;2023-07-13T12:35:39;2.63;;;1.58;;
19727;SDS011;10015;52.530;13.390;2023-07-13T12:38:13;3.25;;;1.65;;
19727;SDS011;10015;52.530;13.390;2023-07-13T12:40:39;4.72;;;1.80;;
19727;SDS011;10015;52.530;13.390;2023-07-13T12:43:10;3.95;;;1.60;;
19727;SDS011;10015;52.530;13.390;2023-07-13T12:45:38;3.40;;;1.80;;
19727;SDS011;10015;52.530;13.390;2023-07-13T12:48:06;3.67;;;1.60;;
19727;SDS011;10015;52.530;13.390;2023-07-13T12:50:40;4.15;;;1.80;;
19727;SDS011;10015;52.530;13.390;2023-07-13T12:53:30;4.03;;;1.40;;
19727;SDS011;10015;52.530;13.390;2023-07-13T12:56:05;4.20;;;1.38;;
19727;SDS011;10015;52.530;13.390;2023-07-13T12:58:38;6.45;;;1.50;;
19727;SDS011;10015;52.530;13.390;2023-07-13T13:01:12;3.85;;;1.50;;
19727;SDS011;10015;52.530;13.390;2023-07-13T13:03:40;9.15;;;5.30;;
19727;SDS011;10015;52.530;13.390;2023-07-13T13:08:45;4.47;;;1.80;;
19727;SDS011;10015;52.530;13.390;2023-07-13T13:11:20;3.30;;;1.70;;
19727;SDS011;10015;52.530;13.390;2023-07-13T13:13:48;2.53;;;1.52;;
19727;SDS011;10015;52.530;13.390;2023-07-13T13:18:56;5.78;;;2.30;;
19727;SDS011;10015;52.530;13.390;2023-07-13T13:21:27;6.47;;;1.85;;
19727;SDS011;10015;52.530;13.390;2023-07-13T13:23:53;4.90;;;1.70;;
19727;SDS011;10015;52.530;13.390;2023-07-13T13:26:21;5.30;;;1.50;;
19727;SDS011;10015;52.530;13.390;2023-07-13T13:28:47;4.60;;;1.63;;
19727;SDS011;10015;52.530;13.390;2023-07-13T13:31:14;6.00;;;1.60;;
19727;SDS011;10015;52.530;13.390;2023-07-13T13:33:42;3.60;;;1.40;;
19727;SDS011;10015;52.530;13.390;2023-07-13T13:38:43;6.53;;;1.88;;
19727;SDS011;10015;52.530;13.390;2023-07-13T13:41:10;3.65;;;1.88;;
19727;SDS011;10015;52.530;13.390;2023-07-13T13:43:39;9.02;;;1.85;;
19727;SDS011;10015;52.530;13.390;2023-07-13T13:46:11;4.65;;;2.17;;
19727;SDS011;10015;52.530;13.390;2023-07-13T13:48:47;3.88;;;2.25;;
19727;SDS011;10015;52.530;13.390;2023-07-13T13:51:15;6.07;;;2.67;;
19727;SDS011;10015;52.530;13.390;2023-07-13T13:53:46;3.95;;;1.80;;
19727;SDS011;10015;52.530;13.390;2023-07-13T13:56:13;3.67;;;1.50;;
19727;SDS011;10015;52.530;13.390;2023-07-13T13:58:40;2.47;;;1.60;;
19727;SDS011;10015;52.530;13.390;2023-07-13T14:01:16;6.10;;;1.45;;
19727;SDS011;10015;52.530;13.390;2023-07-13T14:03:44;2.85;;;1.38;;
19727;SDS011;10015;52.530;13.390;2023-07-13T14:06:20;3.67;;;1.27;;
19727;SDS011;10015;52.530;13.390;2023-07-13T14:08:46;2.65;;;1.27;;
19727;SDS011;10015;52.530;13.390;2023-07-13T14:11:13;3.20;;;1.48;;
19727;SDS011;10015;52.530;13.390;2023-07-13T14:13:44;2.15;;;1.20;;
19727;SDS011;10015;52.530;13.390;2023-07-13T14:16:18;2.55;;;1.10;;
19727;SDS011;10015;52.530;13.390;2023-07-13T14:18:47;2.40;;;1.20;;
19727;SDS011;10015;52.530;13.390;2023-07-13T14:21:18;3.35;;;1.58;;
19727;SDS011;10015;52.530;13.390;2023-07-13T14:23:45;5.00;;;2.10;;
19727;SDS011;10015;52.530;13.390;2023-07-13T14:28:50;7.32;;;1.58;;
19727;SDS011;10015;52.530;13.390;2023-07-13T14:31:21;7.28;;;3.70;;
19727;SDS011;10015;52.530;13.390;2023-07-13T14:33:48;5.43;;;2.22;;
19727;SDS011;10015;52.530;13.390;2023-07-13T14:36:28;4.22;;;1.50;;
19727;SDS011;10015;52.530;13.390;2023-07-13T14:38:58;2.78;;;1.75;;
19727;SDS011;10015;52.530;13.390;2023-07-13T14:41:26;2.60;;;1.48;;
19727;SDS011;10015;52.530;13.390;2023-07-13T14:43:52;3.92;;;1.50;;
19727;SDS011;10015;52.530;13.390;2023-07-13T14:46:32;6.03;;;1.40;;
19727;SDS011;10015;52.530;13.390;2023-07-13T14:51:37;5.03;;;1.48;;
19727;SDS011;10015;52.530;13.390;2023-07-13T14:54:04;2.13;;;1.40;;
19727;SDS011;10015;52.530;13.390;2023-07-13T14:56:31;2.47;;;1.25;;
19727;SDS011;10015;52.530;13.390;2023-07-13T14:58:57;1.60;;;1.25;;
19727;SDS011;10015;52.530;13.390;2023-07-13T15:01:23;2.80;;;1.27;;
19727;SDS011;10015;52.530;13.390;2023-07-13T15:03:50;3.65;;;1.10;;
19727;SDS011;10015;52.530;13.390;2023-07-13T15:06:17;3.10;;;1.38;;
19727;SDS011;10015;52.530;13.390;2023-07-13T15:08:45;1.60;;;1.10;;
19727;SDS011;10015;52.530;13.390;2023-07-13T15:11:11;2.97;;;1.05;;
19727;SDS011;10015;52.530;13.390;2023-07-13T15:13:38;2.67;;;1.27;;
19727;SDS011;10015;52.530;13.390;2023-07-13T15:16:09;2.65;;;0.98;;
19727;SDS011;10015;52.530;13.390;2023-07-13T15:18:42;1.40;;;0.90;;
19727;SDS011;10015;52.530;13.390;2023-07-13T15:21:09;4.20;;;2.00;;
19727;SDS011;10015;52.530;13.390;2023-07-13T15:23:40;1.20;;;0.93;;
19727;SDS011;10015;52.530;13.390;2023-07-13T15:26:09;2.28;;;1.25;;
19727;SDS011;10015;52.530;13.390;2023-07-13T15:28:41;2.08;;;1.17;;
19727;SDS011;10015;52.530;13.390;2023-07-13T15:31:29;2.70;;;1.10;;
19727;SDS011;10015;52.530;13.390;2023-07-13T15:33:57;2.20;;;0.93;;
19727;SDS011;10015;52.530;13.390;2023-07-13T15:36:24;5.15;;;1.40;;
19727;SDS011;10015;52.530;13.390;2023-07-13T15:38:51;3.47;;;1.13;;
19727;SDS011;10015;52.530;13.390;2023-07-13T15:41:26;7.32;;;1.27;;
19727;SDS011;10015;52.530;13.390;2023-07-13T15:43:57;2.15;;;0.98;;